Terminal Aerodrome Forecast
Issued by NWS

Home | Current Version | Previous Version | Text Only | Print | Product List | Glossary Off
Versions: 1 2 3 4 5 6 7 8 9 10 11 12 13 14 15

000
FTUS43 KFGF 170438 AAA
TAFBJI
TAF AMD
KBJI 170438Z 1705/1724 15011G19KT P6SM BKN150
     FM170700 15010KT P6SM OVC015
     FM171700 25006KT P6SM BKN015
     FM171900 28006KT P6SM BKN030
     FM172100 31006KT P6SM BKN080=

USA.gov is the U.S. government's official web portal to all federal, state and local government web resources and services.